createdAt,value
2022-09-07T00:02:07.938Z,99.90
2022-09-07T00:04:43.651Z,99.90
2022-09-07T00:07:10.380Z,99.90
2022-09-07T00:09:37.063Z,99.90
2022-09-07T00:12:03.917Z,99.90
2022-09-07T00:14:30.776Z,99.90
2022-09-07T00:17:00.344Z,99.90
2022-09-07T00:19:27.006Z,99.90
2022-09-07T00:21:53.636Z,99.90
2022-09-07T00:24:20.286Z,99.90
2022-09-07T00:26:46.895Z,99.90
2022-09-07T00:29:13.533Z,99.90
2022-09-07T00:31:40.255Z,99.90
2022-09-07T00:34:06.952Z,99.90
2022-09-07T00:36:33.649Z,99.90
2022-09-07T00:39:00.269Z,99.90
2022-09-07T00:41:26.966Z,99.90
2022-09-07T00:44:00.447Z,99.90
2022-09-07T00:46:30.598Z,99.90
2022-09-07T00:49:12.087Z,99.90
2022-09-07T00:51:55.843Z,99.90
2022-09-07T00:54:28.371Z,99.90
2022-09-07T00:56:55.210Z,99.90
2022-09-07T00:59:34.549Z,99.90
2022-09-07T01:02:01.865Z,99.90
2022-09-07T01:04:30.371Z,99.90
2022-09-07T01:06:57.476Z,99.90
2022-09-07T01:09:33.041Z,99.90
2022-09-07T01:12:01.575Z,99.90
2022-09-07T01:14:42.283Z,99.90
2022-09-07T01:17:41.604Z,99.90
2022-09-07T01:20:29.226Z,99.90
2022-09-07T01:23:26.407Z,99.90
2022-09-07T01:26:11.874Z,99.90
2022-09-07T01:29:04.332Z,99.90
2022-09-07T01:32:02.406Z,99.90
2022-09-07T01:34:29.188Z,99.90
2022-09-07T01:37:35.500Z,99.90
2022-09-07T01:40:05.190Z,99.90
2022-09-07T01:42:56.219Z,99.90
2022-09-07T01:45:30.391Z,99.90
2022-09-07T01:48:26.194Z,99.90
2022-09-07T01:55:22.459Z,99.90
2022-09-07T01:57:58.233Z,99.90
2022-09-07T02:00:25.242Z,99.90
2022-09-07T02:03:00.605Z,99.90
2022-09-07T02:05:35.853Z,99.90
2022-09-07T02:08:10.631Z,99.90
2022-09-07T02:10:42.218Z,99.90
2022-09-07T02:13:35.291Z,99.90
2022-09-07T02:16:09.099Z,99.90
2022-09-07T02:18:58.581Z,99.90
2022-09-07T02:21:48.636Z,99.90
2022-09-07T02:24:26.226Z,99.90
2022-09-07T02:29:57.273Z,99.90
2022-09-07T02:32:23.962Z,99.90
2022-09-07T02:34:57.380Z,99.90
2022-09-07T02:37:27.062Z,99.90
2022-09-07T02:40:00.074Z,99.90
2022-09-07T02:42:42.560Z,99.90
2022-09-07T02:45:12.036Z,99.70
2022-09-07T02:47:53.606Z,99.50
2022-09-07T02:50:39.415Z,99.30
2022-09-07T02:53:31.465Z,99.20
2022-09-07T02:56:25.051Z,99.10
2022-09-07T02:59:07.425Z,99.20
2022-09-07T03:01:55.683Z,99.20
2022-09-07T03:04:48.971Z,99.40
2022-09-07T03:07:26.644Z,99.50
2022-09-07T03:09:56.307Z,99.60
2022-09-07T03:12:23.256Z,99.60
2022-09-07T03:14:50.551Z,99.80
2022-09-07T03:17:17.269Z,99.70
2022-09-07T03:19:43.951Z,99.70
2022-09-07T03:22:27.972Z,99.70
2022-09-07T03:24:54.587Z,99.60
2022-09-07T03:27:24.660Z,99.50
2022-09-07T03:29:51.453Z,99.70
2022-09-07T03:32:25.564Z,99.80
2022-09-07T03:34:55.175Z,99.80
2022-09-07T03:37:25.007Z,99.90
2022-09-07T03:39:51.831Z,99.60
2022-09-07T03:42:18.671Z,98.70
2022-09-07T03:44:45.320Z,98.70
2022-09-07T03:47:12.592Z,99.10
2022-09-07T03:49:39.425Z,98.20
2022-09-07T03:52:06.178Z,97.80
2022-09-07T03:54:34.946Z,97.50
2022-09-07T03:57:15.090Z,97.10
2022-09-07T03:59:41.754Z,96.20
2022-09-07T04:02:11.523Z,95.90
2022-09-07T04:04:38.434Z,95.90
2022-09-07T04:07:05.410Z,95.90
2022-09-07T04:09:32.290Z,95.90
2022-09-07T04:11:58.984Z,96.00
2022-09-07T04:14:34.594Z,96.10
2022-09-07T04:17:01.298Z,96.30
2022-09-07T04:19:29.556Z,96.60
2022-09-07T04:21:56.219Z,96.70
2022-09-07T04:24:31.784Z,97.00
2022-09-07T04:26:58.592Z,97.20
2022-09-07T04:29:25.279Z,97.60
2022-09-07T04:31:51.916Z,97.80
2022-09-07T04:34:18.542Z,97.90
2022-09-07T04:36:45.202Z,97.90
2022-09-07T04:39:14.348Z,97.90
2022-09-07T04:41:41.048Z,98.00
2022-09-07T04:44:07.801Z,98.10
2022-09-07T04:46:36.537Z,98.30
2022-09-07T04:49:12.380Z,98.40
2022-09-07T04:51:39.771Z,98.70
2022-09-07T04:54:06.621Z,98.90
2022-09-07T04:56:33.950Z,99.30
2022-09-07T04:59:03.817Z,99.40
2022-09-07T05:01:30.634Z,99.50
2022-09-07T05:04:02.472Z,99.60
2022-09-07T05:06:29.536Z,99.90
2022-09-07T05:11:49.318Z,99.90
2022-09-07T05:14:22.375Z,99.90
2022-09-07T05:16:49.158Z,99.90
2022-09-07T05:19:15.789Z,99.90
2022-09-07T05:21:42.728Z,99.90
2022-09-07T05:24:18.481Z,99.90
2022-09-07T05:26:45.192Z,99.90
2022-09-07T05:31:58.567Z,99.90
2022-09-07T05:36:55.136Z,99.90
2022-09-07T05:40:18.064Z,99.90
2022-09-07T05:42:44.727Z,99.90
2022-09-07T05:45:11.717Z,99.90
2022-09-07T05:47:38.533Z,99.90
2022-09-07T05:50:07.169Z,99.90
2022-09-07T05:52:36.351Z,99.90
2022-09-07T05:55:26.213Z,99.90
2022-09-07T05:57:57.850Z,99.90
2022-09-07T06:00:27.891Z,99.90
2022-09-07T06:02:54.581Z,99.90
2022-09-07T06:05:21.283Z,99.90
2022-09-07T06:07:48.082Z,99.90
2022-09-07T06:13:03.563Z,99.90
2022-09-07T06:15:32.729Z,99.90
2022-09-07T06:18:01.822Z,99.90
2022-09-07T06:20:28.440Z,99.90
2022-09-07T06:22:55.023Z,99.90
2022-09-07T06:25:21.791Z,99.90
2022-09-07T06:27:49.439Z,99.90
2022-09-07T06:30:17.649Z,99.90
2022-09-07T06:32:44.783Z,99.90
2022-09-07T06:35:13.761Z,99.90
2022-09-07T06:37:41.122Z,99.90
2022-09-07T06:40:08.703Z,99.90
2022-09-07T06:42:35.542Z,99.90
2022-09-07T06:45:02.375Z,99.90
2022-09-07T06:47:37.527Z,99.90
2022-09-07T06:56:34.752Z,98.80
2022-09-07T07:02:23.920Z,97.70
2022-09-07T07:07:55.530Z,96.70
2022-09-07T07:10:38.494Z,96.50
2022-09-07T07:13:05.331Z,96.00
2022-09-07T07:15:50.180Z,95.70
2022-09-07T07:18:38.684Z,95.30
2022-09-07T07:29:32.091Z,93.30
2022-09-07T07:32:10.942Z,92.90
2022-09-07T11:00:34.157Z,61.60
2022-09-07T11:31:04.070Z,64.00
2022-09-07T11:40:34.491Z,62.60
2022-09-07T11:58:28.395Z,60.40
2022-09-07T12:22:39.996Z,58.00
2022-09-07T12:36:48.398Z,57.50
2022-09-07T12:58:41.250Z,56.10
2022-09-07T13:01:40.189Z,56.70
2022-09-07T13:04:47.874Z,56.10
2022-09-07T13:10:33.763Z,55.10
2022-09-07T13:19:47.007Z,54.80
2022-09-07T13:22:36.011Z,55.60
2022-09-07T13:25:33.258Z,56.10
2022-09-07T13:28:31.943Z,55.90
2022-09-07T13:31:23.631Z,56.40
2022-09-07T13:33:56.054Z,56.90
2022-09-07T13:45:03.541Z,56.60
2022-09-07T13:51:05.953Z,56.10
2022-09-07T13:53:42.350Z,55.50
2022-09-07T13:56:41.900Z,53.50
2022-09-07T13:59:28.200Z,54.80
2022-09-07T14:02:03.880Z,55.40
2022-09-07T14:26:20.614Z,55.80
2022-09-07T14:28:54.811Z,55.30
2022-09-07T14:41:30.176Z,56.10
2022-09-07T14:51:34.997Z,55.10
2022-09-07T14:54:43.227Z,54.20
2022-09-07T14:57:31.397Z,53.70
2022-09-07T15:00:31.456Z,53.60
2022-09-07T15:10:34.386Z,54.10
2022-09-07T15:13:41.707Z,55.10
2022-09-07T15:16:39.126Z,53.70
2022-09-07T15:32:28.707Z,54.40
2022-09-07T15:54:13.820Z,54.10
2022-09-07T16:00:22.286Z,54.50
2022-09-07T16:03:07.496Z,55.30
2022-09-07T16:05:42.453Z,55.10
2022-09-07T16:08:25.627Z,55.60
2022-09-07T16:11:24.001Z,55.70
2022-09-07T16:14:04.483Z,55.50
2022-09-07T16:20:32.232Z,55.30
2022-09-07T16:26:05.301Z,55.10
2022-09-07T17:01:00.674Z,57.60
2022-09-07T17:03:28.400Z,58.00
2022-09-07T17:14:47.128Z,58.80
2022-09-07T17:17:13.742Z,59.30
2022-09-07T17:19:40.582Z,59.50
2022-09-07T17:22:09.177Z,59.60
2022-09-07T17:24:48.586Z,59.80
2022-09-07T17:27:18.084Z,60.20
2022-09-07T17:29:44.873Z,60.80
2022-09-07T17:32:26.927Z,61.00
2022-09-07T17:34:56.835Z,60.70
2022-09-07T17:37:23.529Z,61.70
2022-09-07T17:39:50.265Z,62.60
2022-09-07T17:42:17.037Z,63.00
2022-09-07T17:44:53.088Z,63.60
2022-09-07T17:47:20.003Z,64.70
2022-09-07T17:49:47.911Z,64.50
2022-09-07T17:52:14.549Z,64.30
2022-09-07T17:54:42.034Z,64.60
2022-09-07T17:57:09.007Z,64.90
2022-09-07T18:05:07.022Z,65.90
2022-09-07T18:07:34.045Z,65.60
2022-09-07T18:10:00.623Z,66.60
2022-09-07T18:12:27.220Z,66.00
2022-09-07T18:14:54.105Z,66.70
2022-09-07T18:17:42.471Z,67.40
2022-09-07T18:22:53.024Z,67.00
2022-09-07T18:25:20.690Z,68.00
2022-09-07T18:29:03.013Z,68.20
2022-09-07T18:30:38.085Z,68.40
2022-09-07T18:33:07.148Z,68.00
2022-09-07T18:35:34.175Z,68.00
2022-09-07T18:38:01.768Z,68.30
2022-09-07T18:40:28.412Z,68.60
2022-09-07T18:43:04.573Z,68.60
2022-09-07T18:45:43.465Z,68.70
2022-09-07T18:48:25.079Z,68.10
2022-09-07T18:51:09.675Z,67.40
2022-09-07T18:53:39.851Z,67.90
2022-09-07T18:58:58.183Z,68.60
2022-09-07T19:01:33.825Z,68.20
2022-09-07T19:04:03.973Z,68.90
2022-09-07T19:06:30.571Z,69.70
2022-09-07T19:09:07.595Z,70.10
2022-09-07T19:11:41.668Z,70.80
2022-09-07T19:14:17.438Z,71.20
2022-09-07T19:17:04.843Z,71.60
2022-09-07T19:19:36.011Z,71.20
2022-09-07T19:22:30.320Z,71.60
2022-09-07T19:54:43.307Z,71.10
2022-09-07T19:57:10.112Z,71.50
2022-09-07T19:59:37.001Z,72.60
2022-09-07T20:02:24.023Z,72.70
2022-09-07T20:04:50.759Z,71.30
2022-09-07T20:07:34.010Z,71.10
2022-09-07T20:10:00.797Z,71.10
2022-09-07T20:12:27.456Z,72.20
2022-09-07T20:14:54.190Z,72.00
2022-09-07T20:17:20.820Z,72.90
2022-09-07T20:19:50.407Z,73.60
2022-09-07T20:22:17.097Z,74.10
2022-09-07T20:24:56.223Z,74.30
2022-09-07T20:27:25.733Z,74.50
2022-09-07T20:29:53.735Z,74.30
2022-09-07T20:32:22.799Z,73.40
2022-09-07T20:35:17.123Z,73.30
2022-09-07T20:37:48.765Z,73.10
2022-09-07T20:40:23.986Z,72.70
2022-09-07T20:43:02.242Z,72.70
2022-09-07T20:45:35.365Z,73.20
2022-09-07T20:48:02.160Z,72.60
2022-09-07T20:50:31.413Z,72.50
2022-09-07T20:53:04.003Z,73.10
2022-09-07T20:55:30.637Z,73.10
2022-09-07T20:58:09.104Z,72.60
2022-09-07T21:00:35.832Z,72.70
2022-09-07T21:03:02.622Z,73.00
2022-09-07T21:05:37.687Z,73.40
2022-09-07T21:08:04.796Z,72.60
2022-09-07T21:26:54.919Z,72.40
2022-09-07T21:29:26.674Z,72.60
2022-09-07T21:32:04.001Z,72.70
2022-09-07T21:34:31.264Z,72.30
2022-09-07T21:37:03.599Z,72.60
2022-09-07T21:50:27.558Z,72.10
2022-09-07T21:52:55.133Z,72.40
2022-09-07T21:55:24.192Z,72.50
2022-09-07T21:57:51.084Z,73.70
2022-09-07T22:06:36.956Z,73.00
2022-09-07T22:09:04.633Z,72.70
2022-09-07T22:11:45.285Z,72.90
2022-09-07T22:14:40.036Z,72.60
2022-09-07T22:17:06.992Z,72.50
2022-09-07T22:19:36.592Z,72.30
2022-09-07T22:22:11.126Z,72.50
2022-09-07T22:24:37.979Z,73.20
2022-09-07T22:27:04.857Z,74.30
2022-09-07T22:29:31.652Z,74.40
2022-09-07T22:32:29.354Z,73.10
2022-09-07T22:35:31.026Z,72.90
2022-09-07T22:37:56.929Z,72.80
2022-09-07T22:40:24.094Z,72.80
2022-09-07T22:43:00.513Z,73.10
2022-09-07T22:45:32.677Z,73.00
2022-09-07T22:48:05.482Z,73.70
2022-09-07T22:50:57.210Z,74.80
2022-09-07T22:53:27.343Z,75.30
2022-09-07T22:55:54.914Z,75.90
2022-09-07T22:58:38.924Z,76.70
2022-09-07T23:01:18.241Z,77.40
2022-09-07T23:03:45.338Z,77.40
2022-09-07T23:06:21.580Z,77.30
2022-09-07T23:08:49.162Z,77.00
2022-09-07T23:11:25.543Z,76.90
2022-09-07T23:14:02.876Z,77.60
2022-09-07T23:16:42.670Z,78.40
2022-09-07T23:19:10.700Z,78.70
2022-09-07T23:21:37.825Z,79.10
2022-09-07T23:26:45.892Z,79.70
2022-09-07T23:29:24.056Z,79.70
2022-09-07T23:31:50.793Z,79.50
2022-09-07T23:34:17.497Z,79.60
2022-09-07T23:36:48.279Z,79.70
2022-09-07T23:39:14.952Z,79.90
2022-09-07T23:41:52.841Z,79.80
2022-09-07T23:44:19.809Z,79.70
2022-09-07T23:49:38.971Z,80.20
2022-09-07T23:52:14.508Z,80.70
2022-09-07T23:54:41.243Z,80.90
2022-09-07T23:57:17.022Z,81.20
2022-09-07T23:59:43.657Z,81.40
